createdAt,value
2023-01-17T00:04:53.813Z,9.20
2023-01-17T00:09:55.906Z,8.90
2023-01-17T00:14:58.432Z,11.45
2023-01-17T00:20:00.311Z,10.73
2023-01-17T00:25:02.188Z,11.10
2023-01-17T00:30:06.340Z,11.18
2023-01-17T00:35:08.646Z,9.80
2023-01-17T00:40:11.085Z,10.25
2023-01-17T00:45:12.952Z,10.73
2023-01-17T00:50:15.786Z,10.47
2023-01-17T00:55:17.676Z,10.77
2023-01-17T01:00:19.680Z,10.77
2023-01-17T01:05:21.691Z,10.50
2023-01-17T01:10:23.641Z,11.30
2023-01-17T01:15:25.526Z,10.97
2023-01-17T01:20:27.421Z,11.30
2023-01-17T01:25:29.502Z,12.30
2023-01-17T01:30:31.377Z,8.43
2023-01-17T01:35:33.269Z,10.07
2023-01-17T01:40:35.124Z,9.03
2023-01-17T01:45:37.076Z,12.80
2023-01-17T01:50:39.105Z,12.13
2023-01-17T01:55:41.184Z,9.43
2023-01-17T02:00:43.158Z,12.32
2023-01-17T02:05:45.135Z,10.90
2023-01-17T02:10:47.207Z,13.43
2023-01-17T02:16:03.800Z,13.43
2023-01-17T02:21:20.781Z,13.70
2023-01-17T02:26:37.605Z,12.20
2023-01-17T02:31:54.387Z,12.00
2023-01-17T02:37:01.236Z,12.60
2023-01-17T02:42:14.139Z,12.88
2023-01-17T02:47:23.771Z,13.43
2023-01-17T02:53:00.298Z,13.57
2023-01-17T02:58:35.342Z,13.05
2023-01-17T03:03:52.316Z,13.40
2023-01-17T03:08:54.174Z,13.48
2023-01-17T03:13:57.109Z,13.50
2023-01-17T03:18:59.069Z,14.18
2023-01-17T03:24:01.031Z,14.53
2023-01-17T03:29:02.886Z,10.23
2023-01-17T03:34:04.717Z,15.23
2023-01-17T03:39:06.725Z,15.53
2023-01-17T03:44:08.672Z,10.50
2023-01-17T03:49:10.593Z,10.93
2023-01-17T03:54:12.547Z,14.90
2023-01-17T03:59:14.576Z,10.43
2023-01-17T04:04:16.406Z,14.10
2023-01-17T04:09:19.745Z,14.70
2023-01-17T04:14:22.050Z,14.45
2023-01-17T04:19:24.011Z,14.27
2023-01-17T04:24:26.117Z,13.87
2023-01-17T04:29:28.014Z,11.43
2023-01-17T04:34:30.006Z,11.07
2023-01-17T04:39:31.949Z,14.20
2023-01-17T04:44:33.771Z,11.00
2023-01-17T04:49:35.634Z,14.67
2023-01-17T04:54:37.721Z,13.13
2023-01-17T04:59:39.602Z,14.60
2023-01-17T05:04:41.543Z,9.67
2023-01-17T05:09:43.403Z,14.90
2023-01-17T05:14:45.292Z,15.07
2023-01-17T05:19:47.104Z,15.37
2023-01-17T05:24:49.036Z,16.03
2023-01-17T05:29:50.930Z,16.47
2023-01-17T05:34:54.089Z,14.68
2023-01-17T05:39:55.990Z,11.93
2023-01-17T05:44:57.748Z,15.37
2023-01-17T05:49:59.638Z,11.63
2023-01-17T05:55:01.468Z,13.57
2023-01-17T06:00:03.600Z,11.33
2023-01-17T06:10:08.148Z,13.52
2023-01-17T06:15:10.488Z,15.05
2023-01-17T06:20:12.460Z,15.07
2023-01-17T06:25:14.489Z,14.67
2023-01-17T06:30:16.500Z,15.30
2023-01-17T06:35:18.310Z,14.60
2023-01-17T06:40:20.137Z,14.80
2023-01-17T06:45:21.925Z,13.80
2023-01-17T06:50:23.779Z,14.23
2023-01-17T06:55:26.512Z,14.23
2023-01-17T07:05:31.279Z,15.30
2023-01-17T07:10:33.147Z,14.20
2023-01-17T07:15:34.995Z,10.87
2023-01-17T07:20:36.825Z,14.43
2023-01-17T07:25:38.764Z,17.27
2023-01-17T07:30:40.573Z,13.87
2023-01-17T07:35:42.441Z,12.77
2023-01-17T07:40:44.719Z,15.40
2023-01-17T07:45:50.031Z,16.08
2023-01-17T07:50:53.296Z,15.95
2023-01-17T07:55:55.373Z,16.77
2023-01-17T08:01:07.769Z,13.48
2023-01-17T08:06:18.968Z,16.37
2023-01-17T08:11:20.790Z,17.38
2023-01-17T08:16:22.911Z,15.57
2023-01-17T08:21:24.763Z,16.88
2023-01-17T08:26:27.184Z,16.90
2023-01-17T08:31:30.594Z,16.42
2023-01-17T08:36:32.493Z,16.85
2023-01-17T08:41:34.314Z,16.47
2023-01-17T08:46:38.359Z,16.37
2023-01-17T08:51:40.397Z,16.23
2023-01-17T08:56:42.354Z,16.40
2023-01-17T09:01:44.404Z,16.30
2023-01-17T09:06:46.344Z,16.35
2023-01-17T09:11:48.220Z,16.30
2023-01-17T09:16:50.132Z,11.80
2023-01-17T09:21:52.003Z,16.27
2023-01-17T09:26:53.904Z,16.77
2023-01-17T09:31:55.890Z,12.47
2023-01-17T09:36:57.704Z,11.70
2023-01-17T09:42:21.877Z,15.57
2023-01-17T09:47:43.475Z,15.43
2023-01-17T09:52:45.413Z,16.13
2023-01-17T09:58:00.705Z,17.07
2023-01-17T10:03:20.804Z,18.10
2023-01-17T10:08:37.988Z,17.88
2023-01-17T10:13:55.816Z,15.95
2023-01-17T10:19:09.775Z,18.15
2023-01-17T10:24:46.207Z,17.85
2023-01-17T10:29:48.150Z,17.92
2023-01-17T10:34:51.174Z,14.00
2023-01-17T10:39:54.277Z,16.52
2023-01-17T10:45:01.217Z,17.80
2023-01-17T10:50:04.433Z,17.50
2023-01-17T10:55:43.456Z,19.55
2023-01-17T11:00:50.672Z,18.40
2023-01-17T11:06:15.422Z,18.75
2023-01-17T11:11:17.551Z,18.98
2023-01-17T11:16:27.554Z,19.13
2023-01-17T11:21:29.531Z,20.33
2023-01-17T11:26:32.474Z,15.47
2023-01-17T11:31:34.285Z,20.35
2023-01-17T11:36:36.179Z,20.27
2023-01-17T11:41:39.653Z,18.87
2023-01-17T11:46:41.575Z,20.08
2023-01-17T11:51:43.436Z,21.33
2023-01-17T11:56:45.200Z,20.27
2023-01-17T12:02:12.277Z,19.33
2023-01-17T12:07:33.198Z,20.60
2023-01-17T12:12:45.459Z,21.20
2023-01-17T12:18:02.043Z,21.47
2023-01-17T12:23:07.878Z,20.90
2023-01-17T12:28:41.795Z,20.85
2023-01-17T12:34:07.111Z,19.92
2023-01-17T12:39:10.395Z,18.92
2023-01-17T12:44:13.949Z,19.88
2023-01-17T12:49:28.068Z,18.75
2023-01-17T12:54:32.001Z,20.02
2023-01-17T12:59:46.387Z,19.83
2023-01-17T13:04:58.786Z,18.52
2023-01-17T13:10:04.380Z,17.20
2023-01-17T13:15:14.122Z,18.73
2023-01-17T13:20:22.139Z,18.33
2023-01-17T13:25:38.951Z,16.83
2023-01-17T13:31:09.245Z,15.55
2023-01-17T13:36:11.115Z,16.92
2023-01-17T13:41:16.696Z,15.87
2023-01-17T13:46:18.749Z,16.48
2023-01-17T13:51:20.584Z,11.50
2023-01-17T13:56:22.374Z,12.67
2023-01-17T14:01:24.189Z,15.67
2023-01-17T14:06:28.590Z,16.60
2023-01-17T14:11:34.209Z,16.80
2023-01-17T14:16:36.019Z,16.00
2023-01-17T14:21:37.842Z,15.53
2023-01-17T14:26:58.027Z,15.90
2023-01-17T14:32:01.630Z,16.33
2023-01-17T14:37:23.029Z,15.45
2023-01-17T14:42:29.703Z,15.10
2023-01-17T14:47:33.829Z,16.02
2023-01-17T14:52:35.660Z,15.90
2023-01-17T14:57:37.530Z,14.90
2023-01-17T15:02:45.815Z,11.87
2023-01-17T15:07:55.581Z,15.85
2023-01-17T15:12:58.337Z,14.35
2023-01-17T15:23:33.061Z,15.13
2023-01-17T15:28:35.169Z,15.63
2023-01-17T15:33:39.332Z,15.20
2023-01-17T15:38:45.632Z,14.68
2023-01-17T15:43:47.498Z,16.05
2023-01-17T15:48:49.285Z,15.77
2023-01-17T15:53:51.160Z,16.30
2023-01-17T15:58:53.141Z,11.83
2023-01-17T16:03:55.171Z,14.30
2023-01-17T16:08:57.061Z,14.98
2023-01-17T16:13:58.996Z,12.80
2023-01-17T16:19:01.001Z,14.23
2023-01-17T16:24:02.934Z,14.60
2023-01-17T16:29:04.842Z,14.07
2023-01-17T16:34:12.828Z,15.77
2023-01-17T16:39:14.584Z,14.13
2023-01-17T16:44:16.457Z,14.97
2023-01-17T16:49:18.323Z,15.43
2023-01-17T16:54:20.185Z,15.13
2023-01-17T16:59:22.114Z,16.73
2023-01-17T17:04:24.025Z,15.60
2023-01-17T17:09:25.910Z,15.53
2023-01-17T17:14:28.051Z,17.97
2023-01-17T17:19:30.024Z,16.63
2023-01-17T17:24:32.032Z,18.47
2023-01-17T17:29:33.886Z,17.60
2023-01-17T17:34:36.056Z,22.40
2023-01-17T17:39:38.432Z,20.50
2023-01-17T17:49:43.107Z,21.13
2023-01-17T17:59:46.659Z,20.27
2023-01-17T18:04:48.608Z,19.83
2023-01-17T18:09:50.635Z,19.50
2023-01-17T18:14:52.511Z,19.85
2023-01-17T18:19:54.380Z,21.63
2023-01-17T18:24:56.190Z,10.83
2023-01-17T18:30:00.085Z,20.80
2023-01-17T18:35:02.087Z,21.27
2023-01-17T18:40:04.813Z,19.67
2023-01-17T18:45:07.099Z,21.05
2023-01-17T18:50:09.559Z,22.38
2023-01-17T18:55:11.416Z,21.65
2023-01-17T19:00:15.062Z,19.80
2023-01-17T19:05:17.073Z,22.38
2023-01-17T19:10:19.053Z,22.57
2023-01-17T19:15:20.996Z,23.40
2023-01-17T19:20:22.905Z,21.07
2023-01-17T19:25:24.859Z,19.50
2023-01-17T19:30:26.726Z,19.77
2023-01-17T19:35:28.632Z,14.97
2023-01-17T19:40:30.870Z,20.13
2023-01-17T19:45:33.066Z,19.75
2023-01-17T19:50:35.014Z,19.48
2023-01-17T19:55:39.552Z,21.50
2023-01-17T20:00:46.470Z,20.20
2023-01-17T20:05:56.179Z,21.50
2023-01-17T20:11:04.987Z,20.70
2023-01-17T20:16:08.252Z,21.25
2023-01-17T20:21:17.952Z,21.42
2023-01-17T20:26:26.657Z,22.88
2023-01-17T20:31:28.574Z,23.10
2023-01-17T20:36:30.600Z,21.43
2023-01-17T20:41:37.154Z,21.03
2023-01-17T20:46:40.704Z,21.33
2023-01-17T20:51:43.444Z,17.15
2023-01-17T20:56:45.443Z,20.13
2023-01-17T21:01:47.815Z,19.90
2023-01-17T21:06:49.864Z,19.88
2023-01-17T21:11:51.794Z,19.33
2023-01-17T21:16:53.770Z,18.83
2023-01-17T21:21:55.729Z,20.73
2023-01-17T21:26:57.628Z,20.90
2023-01-17T21:31:59.614Z,20.97
2023-01-17T21:37:01.515Z,21.30
2023-01-17T21:42:03.625Z,18.10
2023-01-17T21:47:05.556Z,16.08
2023-01-17T21:52:07.467Z,16.70
2023-01-17T21:57:09.759Z,17.73
2023-01-17T22:02:11.675Z,18.42
2023-01-17T22:07:13.615Z,14.67
2023-01-17T22:12:15.513Z,19.47
2023-01-17T22:17:17.375Z,19.20
2023-01-17T22:22:19.597Z,21.43
2023-01-17T22:27:21.501Z,20.92
2023-01-17T22:32:23.393Z,19.57
2023-01-17T22:37:25.285Z,20.83
2023-01-17T22:42:27.191Z,19.83
2023-01-17T22:47:29.198Z,16.10
2023-01-17T22:52:31.347Z,15.30
2023-01-17T22:57:33.347Z,19.90
2023-01-17T23:02:35.334Z,16.30
2023-01-17T23:07:37.478Z,18.08
2023-01-17T23:12:39.731Z,21.15
2023-01-17T23:17:41.553Z,21.13
2023-01-17T23:22:43.566Z,20.47
2023-01-17T23:27:46.226Z,22.25
2023-01-17T23:37:50.739Z,22.35
2023-01-17T23:42:52.662Z,18.03
2023-01-17T23:47:54.580Z,17.67
2023-01-17T23:52:56.893Z,23.87
2023-01-17T23:57:58.929Z,21.98
